Time;durP1;ratioP1;P1;durP2;ratioP2;P2;SDS_P1;SDS_P2;PMS_P1;PMS_P2;Temp;Humidity;BMP_temperature;BMP_pressure;BME280_temperature;BME280_humidity;BME280_pressure;Samples;Min_cycle;Max_cycle;Signal;HPM_P1;HPM_P2
2021/01/28 00:01:30;;;;;;;13.37;10.67;;;4.80;99.90;;;;;;6130459;23;20220;-83
2021/01/28 00:04:34;;;;;;;17.17;12.80;;;4.90;99.90;;;;;;6129557;23;20621;-83
2021/01/28 00:07:40;;;;;;;20.77;14.32;;;4.90;99.90;;;;;;6130019;23;20250;-83
2021/01/28 00:10:45;;;;;;;18.93;14.57;;;4.90;99.90;;;;;;6134772;23;20252;-83
2021/01/28 00:13:48;;;;;;;19.93;12.90;;;5.00;99.90;;;;;;6135010;23;20168;-81
2021/01/28 00:16:53;;;;;;;16.80;13.70;;;5.00;99.90;;;;;;6135345;23;20200;-82
2021/01/28 00:19:57;;;;;;;19.07;13.70;;;5.00;99.90;;;;;;6134000;23;20172;-83
2021/01/28 00:23:04;;;;;;;23.97;14.60;;;5.10;99.90;;;;;;6134639;23;20190;-83
2021/01/28 00:26:08;;;;;;;21.63;16.27;;;5.10;99.90;;;;;;6130271;23;20268;-83
2021/01/28 00:29:12;;;;;;;22.67;16.10;;;5.20;99.90;;;;;;6135382;23;20190;-83
2021/01/28 00:32:17;;;;;;;21.35;16.27;;;5.20;99.90;;;;;;6135361;23;20209;-83
2021/01/28 00:35:27;;;;;;;25.23;16.85;;;5.30;99.90;;;;;;6134902;23;20168;-83
2021/01/28 00:38:36;;;;;;;23.33;16.27;;;5.30;99.90;;;;;;6133766;23;20221;-83
2021/01/28 00:41:40;;;;;;;18.67;14.30;;;5.40;99.90;;;;;;6133689;23;20176;-82
2021/01/28 00:44:45;;;;;;;24.87;16.57;;;5.40;99.90;;;;;;6132710;23;20212;-83
2021/01/28 00:47:50;;;;;;;22.40;16.00;;;5.40;99.90;;;;;;6132350;23;20204;-82
2021/01/28 00:50:56;;;;;;;22.53;16.27;;;5.40;99.90;;;;;;6132659;23;20169;-83
2021/01/28 00:54:01;;;;;;;21.60;16.07;;;5.40;99.90;;;;;;6132583;23;20536;-82
2021/01/28 00:57:05;;;;;;;21.83;15.90;;;5.40;99.90;;;;;;6134225;23;20305;-83
2021/01/28 01:00:14;;;;;;;23.13;16.63;;;5.40;99.90;;;;;;6133053;23;20190;-83
2021/01/28 01:03:20;;;;;;;20.03;15.00;;;5.50;99.90;;;;;;6136188;23;20172;-82
2021/01/28 01:06:24;;;;;;;24.63;17.07;;;5.50;99.90;;;;;;6141684;23;20237;-83
2021/01/28 01:09:30;;;;;;;22.67;17.27;;;5.50;99.90;;;;;;6136709;23;20164;-83
2021/01/28 01:12:34;;;;;;;26.13;17.43;;;5.50;99.90;;;;;;6136015;23;20232;-83
2021/01/28 01:15:39;;;;;;;27.47;19.00;;;5.50;99.90;;;;;;6145414;23;20165;-83
2021/01/28 01:18:43;;;;;;;24.95;17.48;;;5.50;99.90;;;;;;6154385;23;20221;-84
2021/01/28 01:21:47;;;;;;;24.17;17.77;;;5.50;99.90;;;;;;6131509;23;20165;-83
2021/01/28 01:24:53;;;;;;;24.00;16.43;;;5.50;99.90;;;;;;6130854;23;20506;-83
2021/01/28 01:27:57;;;;;;;21.70;16.10;;;5.50;99.90;;;;;;6134748;23;20205;-83
2021/01/28 01:31:01;;;;;;;24.63;16.53;;;5.70;99.90;;;;;;6153732;23;20247;-84
2021/01/28 01:34:05;;;;;;;29.23;18.45;;;5.60;99.90;;;;;;6134581;23;20171;-83
2021/01/28 01:37:09;;;;;;;27.53;18.97;;;5.60;99.90;;;;;;6133014;23;20483;-83
2021/01/28 01:40:21;;;;;;;23.73;16.63;;;5.60;99.90;;;;;;6134111;23;20217;-83
2021/01/28 01:43:26;;;;;;;25.40;16.95;;;5.60;99.90;;;;;;6134019;23;20171;-83
2021/01/28 01:46:30;;;;;;;25.50;18.47;;;5.50;99.90;;;;;;6133906;23;20215;-82
2021/01/28 01:49:34;;;;;;;23.53;16.77;;;5.50;99.90;;;;;;6133896;23;20243;-83
2021/01/28 01:52:39;;;;;;;25.87;15.87;;;5.50;99.90;;;;;;6133901;23;20292;-82
2021/01/28 01:55:48;;;;;;;22.07;16.27;;;5.60;99.90;;;;;;6134070;23;20204;-83
2021/01/28 01:59:03;;;;;;;19.17;14.63;;;5.50;99.90;;;;;;6133557;23;20253;-83
2021/01/28 02:02:10;;;;;;;20.67;14.20;;;5.50;99.90;;;;;;6132792;23;20209;-83
2021/01/28 02:05:18;;;;;;;23.67;15.13;;;5.60;99.90;;;;;;6132079;23;20168;-82
2021/01/28 02:08:23;;;;;;;22.63;14.53;;;5.40;99.90;;;;;;6132635;23;20208;-83
2021/01/28 02:11:32;;;;;;;21.27;14.63;;;5.50;99.90;;;;;;6131883;23;20192;-83
2021/01/28 02:14:37;;;;;;;22.60;14.90;;;5.60;99.90;;;;;;6132448;23;20201;-83
2021/01/28 02:17:43;;;;;;;20.07;14.97;;;5.60;99.90;;;;;;6132923;23;20200;-83
2021/01/28 02:20:57;;;;;;;21.17;14.43;;;5.60;99.90;;;;;;6134497;23;20185;-83
2021/01/28 02:24:33;;;;;;;19.83;13.50;;;5.60;99.90;;;;;;6133974;23;20185;-83
2021/01/28 02:27:42;;;;;;;20.30;13.83;;;5.60;99.90;;;;;;6132683;23;20733;-82
2021/01/28 02:30:48;;;;;;;19.13;12.70;;;5.70;99.90;;;;;;6132724;23;20164;-81
2021/01/28 02:33:56;;;;;;;18.27;13.40;;;5.50;99.90;;;;;;6132955;23;20581;-83
2021/01/28 02:37:00;;;;;;;17.67;10.33;;;5.50;99.90;;;;;;6132458;23;20753;-83
2021/01/28 02:40:07;;;;;;;17.13;12.77;;;5.60;99.90;;;;;;6132231;23;20168;-83
2021/01/28 02:43:12;;;;;;;18.33;12.52;;;5.50;99.90;;;;;;6132646;23;20197;-83
2021/01/28 02:46:19;;;;;;;20.50;12.77;;;5.50;99.90;;;;;;6132369;23;20226;-83
2021/01/28 02:49:23;;;;;;;17.55;12.20;;;5.50;99.90;;;;;;6133103;23;20176;-83
2021/01/28 02:52:27;;;;;;;19.00;12.27;;;5.50;99.90;;;;;;6132407;23;20167;-83
2021/01/28 02:55:33;;;;;;;17.42;12.80;;;5.40;99.90;;;;;;6133691;23;20181;-83
2021/01/28 02:58:38;;;;;;;18.00;11.80;;;5.40;99.90;;;;;;6134172;23;20173;-82
2021/01/28 03:01:42;;;;;;;18.50;13.37;;;5.40;99.90;;;;;;6132705;23;20168;-83
2021/01/28 03:04:47;;;;;;;20.67;12.17;;;5.30;99.90;;;;;;6132776;23;20169;-83
2021/01/28 03:07:51;;;;;;;19.57;12.80;;;5.40;99.90;;;;;;6132871;23;20204;-83
2021/01/28 03:10:55;;;;;;;20.77;14.30;;;5.40;99.90;;;;;;6133882;23;20164;-83
2021/01/28 03:14:01;;;;;;;23.10;14.20;;;5.50;99.90;;;;;;6132877;23;20204;-83
2021/01/28 03:17:05;;;;;;;22.40;14.80;;;5.40;99.90;;;;;;6133544;23;20200;-83
2021/01/28 03:20:11;;;;;;;18.90;14.10;;;5.40;99.90;;;;;;6130801;23;20244;-82
2021/01/28 03:23:16;;;;;;;22.77;15.83;;;5.50;99.90;;;;;;6132745;23;20173;-83
2021/01/28 03:26:20;;;;;;;23.50;15.40;;;5.50;99.90;;;;;;6140185;23;20227;-83
2021/01/28 03:29:25;;;;;;;19.63;14.50;;;5.60;99.90;;;;;;6137660;23;20313;-83
2021/01/28 03:32:29;;;;;;;19.70;13.65;;;5.60;99.90;;;;;;6136422;23;20164;-83
2021/01/28 03:35:34;;;;;;;22.47;15.07;;;5.50;99.90;;;;;;6136664;23;20560;-83
2021/01/28 03:38:38;;;;;;;23.53;15.47;;;5.60;99.90;;;;;;6135267;23;20602;-83
2021/01/28 03:41:43;;;;;;;24.83;16.07;;;5.50;99.90;;;;;;6134251;23;20360;-83
2021/01/28 03:44:49;;;;;;;20.53;13.90;;;5.50;99.90;;;;;;6133921;23;20565;-84
2021/01/28 03:47:53;;;;;;;20.00;14.67;;;5.40;99.90;;;;;;6133477;23;20232;-83
2021/01/28 03:50:57;;;;;;;23.73;14.80;;;5.50;99.90;;;;;;6133347;23;20172;-83
2021/01/28 03:54:01;;;;;;;18.07;12.93;;;5.60;99.90;;;;;;6132162;23;20269;-83
2021/01/28 03:57:06;;;;;;;18.47;14.03;;;5.40;99.90;;;;;;6133726;23;20244;-82
2021/01/28 04:00:15;;;;;;;20.60;13.87;;;5.50;99.90;;;;;;6133795;23;20167;-83
2021/01/28 04:03:19;;;;;;;22.83;15.53;;;5.40;99.90;;;;;;6134531;23;20227;-83
2021/01/28 04:06:23;;;;;;;20.20;13.53;;;5.40;99.90;;;;;;6134902;23;20257;-83
2021/01/28 04:09:28;;;;;;;19.23;13.85;;;5.40;99.90;;;;;;6134574;23;20211;-83
2021/01/28 04:12:32;;;;;;;19.07;14.03;;;5.30;99.90;;;;;;6133757;23;20192;-83
2021/01/28 04:15:38;;;;;;;25.33;15.23;;;5.30;99.90;;;;;;6133968;23;20222;-82
2021/01/28 04:18:42;;;;;;;21.60;14.43;;;5.40;99.90;;;;;;6135203;23;20164;-83
2021/01/28 04:21:46;;;;;;;20.90;14.53;;;5.50;99.90;;;;;;6134937;23;20172;-83
2021/01/28 04:24:50;;;;;;;18.50;14.80;;;5.30;99.90;;;;;;6135282;23;20194;-83
2021/01/28 04:27:55;;;;;;;20.67;14.77;;;5.30;99.90;;;;;;6135017;23;20753;-83
2021/01/28 04:31:01;;;;;;;22.23;15.40;;;5.30;99.90;;;;;;6135874;23;20168;-83
2021/01/28 04:34:06;;;;;;;16.13;12.97;;;5.40;99.90;;;;;;6136702;23;20187;-83
2021/01/28 04:37:10;;;;;;;18.52;14.48;;;5.30;99.90;;;;;;6137175;23;20239;-83
2021/01/28 04:40:23;;;;;;;22.70;13.97;;;5.40;99.90;;;;;;6137486;23;20194;-82
2021/01/28 04:43:29;;;;;;;20.87;16.93;;;5.40;99.90;;;;;;6136475;23;20168;-83
2021/01/28 04:46:39;;;;;;;22.77;16.07;;;5.40;99.90;;;;;;6136553;23;20252;-82
2021/01/28 04:49:48;;;;;;;21.65;14.90;;;5.50;99.90;;;;;;6135186;23;20164;-82
2021/01/28 04:52:56;;;;;;;19.53;14.80;;;5.40;99.90;;;;;;6136421;23;20168;-83
2021/01/28 04:56:07;;;;;;;20.10;14.32;;;5.40;99.90;;;;;;6136082;23;20204;-82
2021/01/28 04:59:16;;;;;;;20.43;14.27;;;5.20;99.90;;;;;;6136668;23;20536;-82
2021/01/28 05:02:24;;;;;;;20.30;13.40;;;5.20;99.90;;;;;;6135935;23;20225;-82
2021/01/28 05:05:28;;;;;;;18.55;13.93;;;5.50;99.90;;;;;;6137348;23;20172;-83
2021/01/28 05:08:32;;;;;;;16.80;12.60;;;5.20;99.90;;;;;;6136595;23;20232;-83
2021/01/28 05:11:38;;;;;;;19.17;13.00;;;5.30;99.90;;;;;;6142963;23;20196;-83
2021/01/28 05:14:42;;;;;;;15.93;11.87;;;5.20;99.90;;;;;;6153367;23;20165;-83
2021/01/28 05:18:00;;;;;;;16.23;13.07;;;5.20;99.90;;;;;;6137059;23;20204;-83
2021/01/28 05:21:08;;;;;;;16.42;13.05;;;5.20;99.90;;;;;;6137125;23;20173;-82
2021/01/28 05:24:28;;;;;;;16.27;11.13;;;5.20;99.90;;;;;;6137718;23;20192;-82
2021/01/28 05:27:35;;;;;;;16.33;11.87;;;5.20;99.90;;;;;;6136127;23;20242;-83
2021/01/28 05:30:42;;;;;;;17.30;13.73;;;5.10;99.90;;;;;;6135854;23;20219;-82
2021/01/28 05:33:48;;;;;;;17.53;13.80;;;5.10;99.90;;;;;;6135183;23;20181;-82
2021/01/28 05:36:59;;;;;;;20.23;13.03;;;5.10;99.90;;;;;;6134456;23;20264;-82
2021/01/28 05:40:13;;;;;;;21.10;14.93;;;5.10;99.90;;;;;;6136034;23;20164;-82
2021/01/28 05:43:33;;;;;;;21.40;15.07;;;5.10;99.90;;;;;;6146300;23;20157;-83
2021/01/28 05:46:37;;;;;;;21.73;15.17;;;5.10;99.90;;;;;;6152378;23;20208;-83
2021/01/28 05:49:43;;;;;;;22.93;16.13;;;5.00;99.90;;;;;;6134217;23;20173;-83
2021/01/28 05:52:48;;;;;;;21.08;15.07;;;5.00;99.90;;;;;;6130135;23;20208;-82
2021/01/28 05:55:53;;;;;;;21.57;14.53;;;5.10;99.90;;;;;;6131675;23;20187;-82
2021/01/28 05:59:05;;;;;;;22.37;14.97;;;5.00;99.90;;;;;;6130792;23;20169;-82
2021/01/28 06:02:32;;;;;;;21.57;13.90;;;5.00;99.90;;;;;;6130436;23;20216;-81
2021/01/28 06:05:52;;;;;;;17.50;13.13;;;5.00;99.90;;;;;;6132336;23;20168;-82
2021/01/28 06:09:19;;;;;;;18.37;14.23;;;5.00;99.90;;;;;;6130537;23;20193;-83
2021/01/28 06:12:46;;;;;;;19.73;13.80;;;5.00;99.90;;;;;;6131188;23;20216;-82
2021/01/28 06:15:56;;;;;;;19.73;13.77;;;5.00;99.90;;;;;;6132689;23;20156;-81
2021/01/28 06:19:26;;;;;;;19.80;13.57;;;5.10;99.90;;;;;;6136424;23;20227;-81
2021/01/28 06:22:43;;;;;;;19.90;14.20;;;5.00;99.90;;;;;;6135411;23;20207;-83
2021/01/28 06:26:11;;;;;;;24.33;16.27;;;5.00;99.90;;;;;;6134045;23;20165;-82
2021/01/28 06:29:40;;;;;;;21.57;15.17;;;4.90;99.90;;;;;;6134689;23;20191;-82
2021/01/28 06:33:23;;;;;;;23.85;15.00;;;5.00;99.90;;;;;;6134990;23;20176;-82
2021/01/28 06:36:58;;;;;;;21.40;14.53;;;5.10;99.90;;;;;;6134616;23;20263;-82
2021/01/28 06:40:06;;;;;;;18.90;14.97;;;5.00;99.90;;;;;;6134397;23;20167;-82
2021/01/28 06:43:16;;;;;;;19.88;14.00;;;5.10;99.90;;;;;;6143365;23;20164;-82
2021/01/28 06:46:31;;;;;;;22.07;15.57;;;5.00;99.90;;;;;;6134522;23;20200;-82
2021/01/28 06:49:46;;;;;;;54.43;20.13;;;5.00;99.90;;;;;;6134127;23;20193;-82
2021/01/28 06:52:58;;;;;;;41.45;19.65;;;4.90;99.90;;;;;;6136199;23;20560;-83
2021/01/28 06:56:09;;;;;;;25.17;16.97;;;5.00;99.90;;;;;;6135498;23;20681;-82
2021/01/28 06:59:20;;;;;;;25.13;17.83;;;4.80;99.90;;;;;;6138403;23;20208;-83
2021/01/28 07:02:39;;;;;;;26.40;18.83;;;5.00;99.90;;;;;;6137611;23;20169;-84
2021/01/28 07:05:52;;;;;;;19.60;16.10;;;5.00;99.90;;;;;;6138557;23;20192;-84
2021/01/28 07:09:08;;;;;;;20.73;16.27;;;4.90;99.90;;;;;;6136963;23;20275;-83
2021/01/28 07:12:19;;;;;;;21.53;16.43;;;4.90;99.90;;;;;;6140167;23;20223;-84
2021/01/28 07:15:26;;;;;;;22.23;16.80;;;4.90;99.90;;;;;;6133885;23;20168;-83
2021/01/28 07:18:34;;;;;;;21.73;14.63;;;4.80;99.90;;;;;;6136463;23;20200;-83
2021/01/28 07:21:40;;;;;;;16.57;13.00;;;4.80;99.90;;;;;;6106145;23;20161;-83
2021/01/28 07:24:45;;;;;;;17.23;13.87;;;4.80;99.90;;;;;;6113184;23;20186;-82
2021/01/28 07:27:58;;;;;;;17.50;13.57;;;4.70;99.90;;;;;;6106110;23;20205;-83
2021/01/28 07:31:25;;;;;;;18.87;13.40;;;4.70;99.90;;;;;;6107125;23;20562;-82
2021/01/28 07:34:29;;;;;;;16.60;13.40;;;4.80;99.90;;;;;;6107269;23;20225;-82
2021/01/28 07:37:33;;;;;;;21.67;16.00;;;4.70;99.90;;;;;;6107177;23;20254;-83
2021/01/28 07:40:59;;;;;;;18.20;13.93;;;4.70;99.90;;;;;;6103447;23;20180;-83
2021/01/28 07:44:50;;;;;;;21.53;15.40;;;4.70;99.90;;;;;;6106585;23;20185;-81
2021/01/28 07:48:00;;;;;;;14.27;12.80;;;4.70;99.90;;;;;;6108317;23;20209;-83
2021/01/28 07:51:31;;;;;;;15.73;13.00;;;4.70;99.90;;;;;;6107961;23;20518;-83
2021/01/28 07:54:45;;;;;;;16.10;13.20;;;4.80;99.90;;;;;;6107571;23;20216;-82
2021/01/28 07:57:49;;;;;;;18.93;14.83;;;4.80;99.90;;;;;;6122591;23;20232;-58
2021/01/28 08:00:53;;;;;;;23.20;15.83;;;4.90;99.90;;;;;;6125147;23;20199;-58
2021/01/28 08:04:05;;;;;;;18.37;14.87;;;4.80;99.90;;;;;;6125043;23;20196;-59
2021/01/28 08:07:11;;;;;;;13.53;11.90;;;4.80;99.90;;;;;;6124600;23;20173;-57
2021/01/28 08:10:26;;;;;;;18.50;14.13;;;4.80;99.90;;;;;;6124333;23;20245;-57
2021/01/28 08:13:31;;;;;;;12.63;11.33;;;4.80;99.90;;;;;;6124229;23;20237;-57
2021/01/28 08:16:36;;;;;;;14.95;13.20;;;4.80;99.90;;;;;;6124339;23;20220;-57
2021/01/28 08:19:41;;;;;;;13.90;12.37;;;4.90;99.90;;;;;;6124268;23;20206;-57
2021/01/28 08:22:53;;;;;;;14.07;12.03;;;4.80;99.90;;;;;;6124643;23;20168;-56
2021/01/28 08:25:59;;;;;;;17.47;11.47;;;4.90;99.90;;;;;;6124368;23;20168;-57
2021/01/28 08:29:06;;;;;;;13.20;11.40;;;4.90;99.90;;;;;;6124313;23;20723;-57
2021/01/28 08:32:22;;;;;;;14.53;12.63;;;4.90;99.90;;;;;;6124746;23;20347;-57
2021/01/28 08:35:31;;;;;;;14.33;11.43;;;4.90;99.90;;;;;;6124441;23;20502;-57
2021/01/28 08:38:35;;;;;;;14.50;12.43;;;4.90;99.90;;;;;;6124354;23;20168;-58
2021/01/28 08:41:40;;;;;;;12.37;11.07;;;4.90;99.90;;;;;;6124280;23;20297;-57
2021/01/28 08:44:46;;;;;;;12.87;10.43;;;4.90;99.90;;;;;;6124081;23;20169;-58
2021/01/28 08:47:58;;;;;;;12.93;11.57;;;5.00;99.90;;;;;;6124258;23;20192;-58
2021/01/28 08:51:08;;;;;;;12.40;11.13;;;4.90;99.90;;;;;;6124300;23;20204;-58
2021/01/28 08:54:19;;;;;;;13.00;10.50;;;4.90;99.90;;;;;;6124297;23;20507;-58
2021/01/28 08:57:25;;;;;;;12.97;11.23;;;5.00;99.90;;;;;;6124279;23;20193;-58
2021/01/28 09:00:31;;;;;;;12.93;10.00;;;5.00;99.90;;;;;;6123451;23;20204;-58
2021/01/28 09:03:42;;;;;;;14.45;11.60;;;5.00;99.90;;;;;;6124116;23;20228;-58
2021/01/28 09:06:48;;;;;;;15.90;11.80;;;5.00;99.90;;;;;;6123780;23;20520;-58
2021/01/28 09:10:03;;;;;;;12.40;11.03;;;5.10;99.90;;;;;;6123502;23;20195;-58
2021/01/28 09:13:20;;;;;;;11.27;8.95;;;5.10;99.90;;;;;;6123841;23;20173;-59
2021/01/28 09:16:24;;;;;;;13.27;10.80;;;5.00;99.90;;;;;;6123735;23;20213;-58
2021/01/28 09:19:30;;;;;;;13.10;10.27;;;5.10;99.90;;;;;;6123995;23;20231;-58
2021/01/28 09:22:37;;;;;;;11.80;8.83;;;5.10;99.90;;;;;;6124197;23;20176;-58
2021/01/28 09:25:42;;;;;;;13.37;8.93;;;5.10;99.90;;;;;;6124133;23;20497;-58
2021/01/28 09:28:46;;;;;;;13.60;10.10;;;5.10;99.90;;;;;;6125350;23;20661;-60
2021/01/28 09:31:51;;;;;;;12.60;9.83;;;5.20;99.90;;;;;;6123938;23;20200;-58
2021/01/28 09:35:14;;;;;;;12.53;9.23;;;5.20;99.90;;;;;;6123596;23;20562;-60
2021/01/28 09:38:19;;;;;;;12.87;8.97;;;5.20;99.90;;;;;;6123007;23;20168;-58
2021/01/28 09:41:26;;;;;;;12.13;8.27;;;5.10;99.90;;;;;;6123570;23;20173;-60
2021/01/28 09:44:34;;;;;;;11.83;8.07;;;5.10;99.90;;;;;;6123012;23;20172;-59
2021/01/28 09:47:38;;;;;;;9.83;6.60;;;5.10;99.90;;;;;;6123105;23;20231;-59
2021/01/28 09:50:42;;;;;;;7.60;6.80;;;5.00;99.90;;;;;;6123415;23;20262;-58
2021/01/28 09:53:59;;;;;;;8.90;7.20;;;5.00;99.90;;;;;;6123364;23;20168;-60
2021/01/28 09:57:04;;;;;;;8.53;7.70;;;5.00;99.90;;;;;;6123064;23;20250;-58
2021/01/28 10:00:10;;;;;;;10.10;8.25;;;5.10;99.90;;;;;;6123468;23;20259;-59
2021/01/28 10:03:15;;;;;;;10.33;7.33;;;5.10;99.90;;;;;;6123636;23;20253;-58
2021/01/28 10:06:19;;;;;;;8.07;6.13;;;5.00;99.90;;;;;;6123182;23;20640;-60
2021/01/28 10:09:23;;;;;;;10.25;7.10;;;5.00;99.90;;;;;;6122621;23;20212;-58
2021/01/28 10:13:03;;;;;;;10.07;7.17;;;5.00;99.90;;;;;;6122930;23;20172;-59
2021/01/28 10:16:06;;;;;;;8.50;6.23;;;4.90;99.90;;;;;;6122588;23;20245;-58
2021/01/28 10:19:10;;;;;;;12.67;8.33;;;4.90;99.90;;;;;;6123171;23;20313;-59
2021/01/28 10:22:18;;;;;;;9.10;6.60;;;5.00;99.90;;;;;;6122844;23;20200;-59
2021/01/28 10:25:23;;;;;;;7.57;5.97;;;5.00;99.90;;;;;;6123018;23;20173;-58
2021/01/28 10:28:26;;;;;;;9.50;5.67;;;4.90;99.90;;;;;;6123372;23;20275;-60
2021/01/28 10:31:30;;;;;;;8.00;6.37;;;5.00;99.90;;;;;;6123960;23;20171;-59
2021/01/28 10:34:35;;;;;;;8.13;6.30;;;4.90;99.90;;;;;;6123193;23;20173;-59
2021/01/28 10:37:39;;;;;;;8.73;5.93;;;5.00;99.90;;;;;;6123128;23;20171;-58
2021/01/28 10:40:44;;;;;;;5.93;5.07;;;5.00;99.90;;;;;;6122648;23;20228;-58
2021/01/28 10:43:47;;;;;;;9.73;6.10;;;5.00;99.90;;;;;;6122843;23;20172;-58
2021/01/28 10:46:52;;;;;;;6.80;6.10;;;5.00;99.90;;;;;;6122747;23;20224;-59
2021/01/28 10:49:56;;;;;;;7.60;6.27;;;5.00;99.90;;;;;;6122493;23;20200;-59
2021/01/28 10:53:00;;;;;;;8.80;7.00;;;5.00;99.90;;;;;;6122841;23;20184;-58
2021/01/28 10:56:07;;;;;;;11.83;8.67;;;5.00;99.90;;;;;;6122518;23;20586;-58
2021/01/28 10:59:11;;;;;;;12.03;8.97;;;5.00;99.90;;;;;;6122598;23;20172;-57
2021/01/28 11:02:15;;;;;;;13.93;10.20;;;4.90;99.90;;;;;;6122578;23;20192;-59
2021/01/28 11:05:21;;;;;;;14.57;9.27;;;5.00;99.90;;;;;;6123248;23;20188;-58
2021/01/28 11:08:27;;;;;;;9.43;8.37;;;4.90;99.90;;;;;;6118096;23;20188;-58
2021/01/28 11:11:32;;;;;;;12.93;8.95;;;4.80;99.90;;;;;;6122978;23;20176;-57
2021/01/28 11:14:36;;;;;;;11.13;8.80;;;4.90;99.90;;;;;;6122812;23;20248;-60
2021/01/28 11:17:40;;;;;;;13.73;9.67;;;4.90;99.90;;;;;;6122841;23;20196;-59
2021/01/28 11:20:44;;;;;;;11.73;9.43;;;4.90;99.90;;;;;;6121564;23;20232;-62
2021/01/28 11:23:48;;;;;;;13.57;10.07;;;4.90;99.90;;;;;;6120141;23;20199;-63
2021/01/28 11:26:53;;;;;;;12.63;9.70;;;4.80;99.90;;;;;;6121304;23;20183;-62
2021/01/28 11:29:58;;;;;;;13.40;7.73;;;4.80;99.90;;;;;;6121714;23;20240;-63
2021/01/28 11:33:04;;;;;;;9.80;7.00;;;4.80;99.90;;;;;;6092753;23;20279;-63
2021/01/28 11:36:08;;;;;;;8.83;6.73;;;4.70;99.90;;;;;;6092407;23;20288;-63
2021/01/28 11:39:12;;;;;;;11.00;6.97;;;4.70;99.90;;;;;;6091915;23;20168;-62
2021/01/28 11:42:17;;;;;;;10.43;7.33;;;4.60;99.90;;;;;;6092612;23;20288;-61
2021/01/28 11:45:23;;;;;;;13.33;8.83;;;4.50;99.90;;;;;;6095959;23;20225;-62
2021/01/28 11:48:27;;;;;;;9.87;8.07;;;4.60;99.90;;;;;;6094551;23;20241;-56
2021/01/28 11:51:31;;;;;;;11.67;7.77;;;4.70;99.90;;;;;;6093781;23;20289;-57
2021/01/28 11:54:35;;;;;;;11.90;9.13;;;4.70;99.90;;;;;;6092710;23;20220;-60
2021/01/28 11:57:40;;;;;;;11.87;9.27;;;4.80;99.90;;;;;;6092454;23;20173;-62
2021/01/28 12:00:44;;;;;;;15.97;9.73;;;4.80;99.90;;;;;;6091145;23;20252;-63
2021/01/28 12:03:47;;;;;;;12.63;8.63;;;4.90;99.90;;;;;;6092374;23;20165;-62
2021/01/28 12:06:51;;;;;;;11.27;10.13;;;4.80;99.90;;;;;;6092450;23;20217;-62
2021/01/28 12:09:55;;;;;;;14.05;10.60;;;4.80;99.90;;;;;;6092096;23;20277;-62
2021/01/28 12:13:00;;;;;;;13.47;11.37;;;4.90;99.90;;;;;;6092943;23;20274;-62
2021/01/28 12:16:06;;;;;;;11.90;10.63;;;4.80;99.90;;;;;;6092296;23;20215;-62
2021/01/28 12:19:10;;;;;;;13.67;10.17;;;4.70;99.90;;;;;;6092429;23;20208;-63
2021/01/28 12:22:14;;;;;;;11.53;10.33;;;4.80;99.90;;;;;;6092435;23;20209;-62
2021/01/28 12:25:19;;;;;;;13.13;11.13;;;4.80;99.90;;;;;;6092427;23;20200;-62
2021/01/28 12:28:24;;;;;;;15.30;12.33;;;4.70;99.90;;;;;;6092133;23;20195;-61
2021/01/28 12:31:28;;;;;;;15.30;12.63;;;4.70;99.90;;;;;;6091244;23;20247;-62
2021/01/28 12:34:32;;;;;;;14.82;11.88;;;4.70;99.90;;;;;;6092106;23;20189;-62
2021/01/28 12:37:36;;;;;;;15.73;13.60;;;4.70;99.90;;;;;;6094052;23;20170;-62
2021/01/28 12:40:40;;;;;;;15.23;13.03;;;4.70;99.90;;;;;;6094235;23;20672;-62
2021/01/28 12:43:45;;;;;;;17.90;14.67;;;4.70;99.90;;;;;;6094808;23;20168;-62
2021/01/28 12:46:49;;;;;;;18.00;13.17;;;4.70;99.90;;;;;;6094333;23;20495;-63
2021/01/28 12:49:53;;;;;;;14.17;11.90;;;4.60;99.90;;;;;;6094075;23;20197;-62
2021/01/28 12:52:57;;;;;;;18.47;14.40;;;4.60;99.90;;;;;;6094159;23;20690;-62
2021/01/28 12:56:01;;;;;;;18.87;14.83;;;4.70;99.90;;;;;;6093641;23;20173;-62
2021/01/28 12:59:06;;;;;;;14.10;11.83;;;4.70;99.90;;;;;;6093935;23;20211;-62
2021/01/28 13:02:10;;;;;;;19.27;13.60;;;4.70;99.90;;;;;;6094010;23;20208;-61
2021/01/28 13:05:14;;;;;;;19.17;15.20;;;4.70;99.90;;;;;;6094279;23;20344;-61
2021/01/28 13:08:18;;;;;;;18.00;14.03;;;4.70;99.90;;;;;;6094508;23;20192;-60
2021/01/28 13:11:23;;;;;;;17.73;14.70;;;4.70;99.90;;;;;;6094382;23;20251;-62
2021/01/28 13:14:27;;;;;;;26.00;18.00;;;4.70;99.90;;;;;;6094448;23;20179;-60
2021/01/28 13:17:32;;;;;;;24.73;17.03;;;4.70;99.90;;;;;;6094418;23;20173;-60
2021/01/28 13:20:36;;;;;;;23.73;16.37;;;4.70;99.90;;;;;;6094024;23;20212;-62
2021/01/28 13:23:39;;;;;;;22.07;16.13;;;4.60;99.90;;;;;;6094218;23;20745;-63
2021/01/28 13:26:43;;;;;;;19.50;16.03;;;4.60;99.90;;;;;;6093683;23;20165;-61
2021/01/28 13:29:48;;;;;;;23.37;16.70;;;4.70;99.90;;;;;;6093908;23;20220;-62
2021/01/28 13:32:53;;;;;;;24.67;17.73;;;4.70;99.90;;;;;;6094545;23;20213;-62
2021/01/28 13:35:57;;;;;;;27.23;18.87;;;4.70;99.90;;;;;;6093783;23;20685;-62
2021/01/28 13:39:01;;;;;;;22.30;15.97;;;4.70;99.90;;;;;;6076644;23;20169;-61
2021/01/28 13:42:06;;;;;;;20.27;15.37;;;4.60;99.90;;;;;;6093288;23;20235;-62
2021/01/28 13:45:13;;;;;;;24.63;16.97;;;4.60;99.90;;;;;;6093918;23;20171;-61
2021/01/28 13:48:18;;;;;;;19.87;15.43;;;4.60;99.90;;;;;;6093234;23;20196;-64
2021/01/28 13:51:21;;;;;;;20.53;16.67;;;4.70;99.90;;;;;;6094300;23;20201;-62
2021/01/28 13:54:25;;;;;;;21.53;16.63;;;4.70;99.90;;;;;;6094012;23;20297;-62
2021/01/28 13:57:29;;;;;;;20.70;15.73;;;4.70;99.90;;;;;;6093917;23;20165;-62
2021/01/28 14:00:34;;;;;;;17.13;13.80;;;4.70;99.90;;;;;;6093436;23;20169;-61
2021/01/28 14:03:38;;;;;;;20.20;14.10;;;4.60;99.90;;;;;;6094431;23;20658;-61
2021/01/28 14:06:42;;;;;;;24.77;16.93;;;4.60;99.90;;;;;;6094062;23;20676;-61
2021/01/28 14:09:45;;;;;;;26.97;16.40;;;4.50;99.90;;;;;;6097416;23;20513;-62
2021/01/28 14:12:50;;;;;;;19.67;15.33;;;4.60;99.90;;;;;;6098248;23;20169;-62
2021/01/28 14:15:55;;;;;;;20.17;14.85;;;4.50;99.90;;;;;;6097377;23;20170;-62
2021/01/28 14:18:59;;;;;;;19.47;15.57;;;4.50;99.90;;;;;;6092228;23;20204;-61
2021/01/28 14:22:03;;;;;;;17.43;14.93;;;4.50;99.90;;;;;;6092626;23;20212;-62
2021/01/28 14:25:08;;;;;;;20.73;15.97;;;4.50;99.90;;;;;;6092416;23;20207;-61
2021/01/28 14:28:12;;;;;;;18.97;14.73;;;4.40;99.90;;;;;;6087339;23;20688;-61
2021/01/28 14:31:17;;;;;;;19.30;13.40;;;4.40;99.90;;;;;;6090626;23;20726;-61
2021/01/28 14:34:21;;;;;;;21.70;15.17;;;4.40;99.90;;;;;;6092903;23;20169;-62
2021/01/28 14:37:25;;;;;;;18.23;14.63;;;4.40;99.90;;;;;;6104873;23;20172;-61
2021/01/28 14:40:29;;;;;;;17.30;13.27;;;4.40;99.90;;;;;;6103948;23;20218;-62
2021/01/28 14:43:33;;;;;;;18.73;14.67;;;4.40;99.90;;;;;;6105670;23;20258;-62
2021/01/28 14:46:38;;;;;;;20.23;15.10;;;4.30;99.90;;;;;;6100561;23;20519;-62
2021/01/28 14:49:42;;;;;;;20.10;16.43;;;4.30;99.90;;;;;;6094203;23;20653;-61
2021/01/28 14:52:46;;;;;;;17.53;13.60;;;4.30;99.90;;;;;;6094544;23;20201;-62
2021/01/28 14:55:49;;;;;;;17.57;12.57;;;4.40;99.90;;;;;;6093863;23;20487;-62
2021/01/28 14:58:53;;;;;;;14.53;11.03;;;4.30;99.90;;;;;;6093738;23;20357;-63
2021/01/28 15:01:59;;;;;;;15.00;11.10;;;4.40;99.90;;;;;;6093537;23;20657;-61
2021/01/28 15:05:03;;;;;;;18.77;14.90;;;4.30;99.90;;;;;;6093452;23;20608;-62
2021/01/28 15:08:07;;;;;;;12.90;11.60;;;4.30;99.90;;;;;;6093203;23;20195;-62
2021/01/28 15:11:12;;;;;;;14.43;10.93;;;4.40;99.90;;;;;;6093088;23;20249;-61
2021/01/28 15:14:16;;;;;;;14.73;12.17;;;4.40;99.90;;;;;;6093362;23;20171;-62
2021/01/28 15:17:21;;;;;;;15.30;11.53;;;4.30;99.90;;;;;;6093187;23;20654;-61
2021/01/28 15:20:25;;;;;;;21.30;16.23;;;4.30;99.90;;;;;;6092920;23;20205;-61
2021/01/28 15:23:29;;;;;;;20.97;15.60;;;4.30;99.90;;;;;;6093282;23;20170;-63
2021/01/28 15:26:32;;;;;;;17.40;12.97;;;4.30;99.90;;;;;;6093075;23;20216;-63
2021/01/28 15:29:36;;;;;;;19.27;15.07;;;4.20;99.90;;;;;;6092518;23;20269;-62
2021/01/28 15:32:40;;;;;;;19.37;15.17;;;4.20;99.90;;;;;;6092817;23;20264;-62
2021/01/28 15:35:45;;;;;;;49.40;31.07;;;4.20;99.90;;;;;;6092794;23;20173;-63
2021/01/28 15:38:49;;;;;;;73.40;46.60;;;4.20;99.90;;;;;;6090320;23;20169;-62
2021/01/28 15:41:53;;;;;;;55.97;35.17;;;4.20;99.90;;;;;;6092469;23;20248;-62
2021/01/28 15:44:56;;;;;;;27.70;19.37;;;4.20;99.90;;;;;;6092874;23;20331;-63
2021/01/28 15:48:01;;;;;;;15.43;13.27;;;4.20;99.90;;;;;;6092883;23;20221;-62
2021/01/28 15:51:05;;;;;;;17.30;12.53;;;4.20;99.90;;;;;;6092877;23;20205;-63
2021/01/28 15:54:11;;;;;;;34.97;24.60;;;4.20;99.90;;;;;;6093234;23;20514;-62
2021/01/28 15:57:14;;;;;;;42.10;27.60;;;4.20;99.90;;;;;;6094473;23;20184;-62
2021/01/28 16:00:19;;;;;;;24.33;18.67;;;4.20;99.90;;;;;;6092862;23;20563;-62
2021/01/28 16:03:24;;;;;;;27.87;23.27;;;4.30;99.90;;;;;;6093068;23;20192;-62